createdAt,value
2019-05-07T00:00:55.930Z,8.03
2019-05-07T00:03:24.334Z,6.23
2019-05-07T00:05:53.991Z,7.87
2019-05-07T00:08:23.010Z,6.97
2019-05-07T00:10:52.974Z,7.30
2019-05-07T00:13:22.703Z,10.50
2019-05-07T00:15:52.803Z,6.67
2019-05-07T00:18:23.003Z,7.80
2019-05-07T00:20:53.013Z,5.03
2019-05-07T00:23:23.163Z,6.00
2019-05-07T00:25:52.926Z,5.83
2019-05-07T00:28:22.991Z,8.27
2019-05-07T00:30:52.151Z,8.20
2019-05-07T00:33:22.676Z,6.37
2019-05-07T00:35:58.886Z,5.30
2019-05-07T00:38:29.010Z,6.17
2019-05-07T00:41:12.319Z,4.23
2019-05-07T00:43:42.878Z,8.50
2019-05-07T00:46:13.072Z,10.37
2019-05-07T00:48:42.289Z,6.13
2019-05-07T00:51:24.082Z,8.70
2019-05-07T00:53:52.608Z,7.87
2019-05-07T00:56:22.295Z,5.80
2019-05-07T00:58:52.765Z,4.67
2019-05-07T01:01:22.684Z,5.80
2019-05-07T01:03:53.290Z,7.07
2019-05-07T01:06:22.437Z,8.40
2019-05-07T01:08:52.527Z,6.87
2019-05-07T01:11:22.618Z,7.20
2019-05-07T01:13:52.043Z,9.27
2019-05-07T01:16:22.247Z,5.20
2019-05-07T01:18:50.786Z,7.77
2019-05-07T01:21:22.568Z,8.43
2019-05-07T01:23:52.280Z,6.77
2019-05-07T01:26:21.912Z,5.63
2019-05-07T01:28:59.590Z,6.43
2019-05-07T01:31:32.752Z,6.40
2019-05-07T01:34:08.263Z,6.33
2019-05-07T01:36:36.805Z,6.93
2019-05-07T01:39:06.048Z,7.50
2019-05-07T01:41:34.584Z,6.87
2019-05-07T01:44:03.136Z,6.87
2019-05-07T01:46:32.453Z,7.70
2019-05-07T01:49:03.024Z,5.70
2019-05-07T01:51:32.703Z,8.23
2019-05-07T01:54:02.222Z,4.53
2019-05-07T01:56:32.971Z,6.03
2019-05-07T01:59:02.449Z,7.07
2019-05-07T02:01:33.149Z,7.67
2019-05-07T02:04:15.283Z,5.23
2019-05-07T02:07:02.812Z,5.07
2019-05-07T02:09:34.048Z,7.03
2019-05-07T02:12:04.310Z,6.47
2019-05-07T02:14:33.108Z,6.00
2019-05-07T02:17:03.008Z,4.73
2019-05-07T02:19:32.965Z,8.83
2019-05-07T02:22:02.989Z,6.33
2019-05-07T02:24:33.644Z,8.20
2019-05-07T02:27:02.998Z,5.43
2019-05-07T02:29:32.437Z,6.33
2019-05-07T02:32:04.188Z,8.07
2019-05-07T02:34:33.926Z,4.90
2019-05-07T02:37:03.991Z,7.53
2019-05-07T02:39:39.037Z,4.40
2019-05-07T02:42:07.496Z,7.57
2019-05-07T02:44:37.544Z,6.03
2019-05-07T02:47:13.483Z,8.00
2019-05-07T02:49:44.050Z,6.57
2019-05-07T02:52:17.097Z,6.57
2019-05-07T02:54:59.079Z,7.47
2019-05-07T02:57:29.241Z,4.87
2019-05-07T02:59:57.619Z,8.07
2019-05-07T03:02:26.116Z,4.27
2019-05-07T03:04:54.652Z,4.20
2019-05-07T03:07:24.160Z,7.43
2019-05-07T03:09:53.807Z,5.37
2019-05-07T03:12:23.694Z,5.13
2019-05-07T03:14:53.722Z,8.33
2019-05-07T03:17:24.556Z,8.37
2019-05-07T03:19:54.139Z,4.20
2019-05-07T03:22:23.589Z,5.03
2019-05-07T03:24:53.625Z,5.47
2019-05-07T03:27:23.460Z,6.30
2019-05-07T03:29:56.823Z,4.00
2019-05-07T03:32:37.808Z,6.33
2019-05-07T03:35:20.694Z,4.83
2019-05-07T03:37:49.333Z,5.30
2019-05-07T03:40:17.747Z,8.30
2019-05-07T03:42:46.207Z,6.87
2019-05-07T03:45:33.465Z,5.70
2019-05-07T03:48:06.107Z,6.67
2019-05-07T03:50:34.570Z,4.50
2019-05-07T03:53:03.086Z,5.40
2019-05-07T03:55:33.213Z,4.30
2019-05-07T03:58:03.193Z,6.60
2019-05-07T04:00:33.214Z,7.07
2019-05-07T04:03:03.636Z,3.97
2019-05-07T04:05:34.261Z,3.60
2019-05-07T04:08:03.278Z,7.27
2019-05-07T04:10:33.821Z,5.70
2019-05-07T04:13:04.467Z,5.67
2019-05-07T04:15:33.114Z,5.17
2019-05-07T04:18:03.615Z,5.50
2019-05-07T04:20:33.406Z,5.97
2019-05-07T04:23:04.359Z,4.03
2019-05-07T04:25:39.212Z,5.27
2019-05-07T04:28:23.528Z,7.97
2019-05-07T04:30:53.246Z,7.57
2019-05-07T04:33:23.810Z,5.57
2019-05-07T04:35:57.323Z,7.03
2019-05-07T04:38:25.809Z,3.97
2019-05-07T04:40:54.309Z,7.13
2019-05-07T04:43:23.356Z,6.27
2019-05-07T04:45:53.715Z,4.13
2019-05-07T04:48:23.347Z,4.83
2019-05-07T04:50:54.322Z,5.40
2019-05-07T04:53:23.816Z,5.47
2019-05-07T04:55:53.561Z,5.97
2019-05-07T04:58:23.705Z,3.77
2019-05-07T05:00:53.735Z,9.03
2019-05-07T05:03:24.252Z,5.00
2019-05-07T05:05:53.475Z,6.47
2019-05-07T05:08:23.316Z,4.83
2019-05-07T05:10:53.821Z,4.90
2019-05-07T05:13:23.435Z,9.63
2019-05-07T05:15:52.805Z,7.57
2019-05-07T05:18:21.997Z,7.20
2019-05-07T05:21:04.142Z,6.37
2019-05-07T05:23:41.935Z,6.50
2019-05-07T05:26:12.490Z,6.63
2019-05-07T05:28:41.958Z,8.43
2019-05-07T05:31:12.519Z,5.37
2019-05-07T05:33:41.988Z,4.60
2019-05-07T05:36:12.649Z,6.67
2019-05-07T05:38:42.427Z,5.87
2019-05-07T05:41:12.345Z,5.10
2019-05-07T05:43:45.282Z,9.37
2019-05-07T05:46:15.398Z,6.50
2019-05-07T05:48:43.805Z,5.20
2019-05-07T05:51:16.902Z,5.80
2019-05-07T05:53:59.334Z,11.47
2019-05-07T05:56:32.583Z,6.77
2019-05-07T05:59:02.902Z,8.43
2019-05-07T06:01:51.917Z,8.40
2019-05-07T06:04:24.136Z,4.97
2019-05-07T06:07:08.846Z,7.73
2019-05-07T06:09:29.124Z,8.70
2019-05-07T06:12:17.369Z,4.03
2019-05-07T06:14:50.095Z,4.20
2019-05-07T06:17:37.106Z,4.50
2019-05-07T06:20:14.629Z,8.37
2019-05-07T06:22:52.812Z,8.33
2019-05-07T06:34:13.403Z,4.23
2019-05-07T06:36:42.491Z,99.37
2019-05-07T06:39:22.302Z,184.07
2019-05-07T06:42:04.308Z,165.87
2019-05-07T06:44:33.191Z,187.67
2019-05-07T06:49:45.370Z,244.07
2019-05-07T06:52:13.884Z,200.07
2019-05-07T06:54:42.821Z,182.67
2019-05-07T06:57:13.051Z,233.63
2019-05-07T06:59:43.333Z,183.30
2019-05-07T07:02:22.682Z,189.50
2019-05-07T07:04:52.832Z,187.47
2019-05-07T07:07:29.804Z,183.97
2019-05-07T07:09:57.849Z,188.10
2019-05-07T07:12:27.976Z,201.07
2019-05-07T07:14:58.062Z,209.70
2019-05-07T07:17:26.957Z,170.30
2019-05-07T07:19:55.460Z,230.03
2019-05-07T07:22:23.894Z,191.13
2019-05-07T07:24:53.151Z,145.97
2019-05-07T07:27:22.711Z,238.60
2019-05-07T07:30:08.411Z,197.97
2019-05-07T07:32:38.555Z,205.23
2019-05-07T07:35:09.696Z,224.57
2019-05-07T07:37:39.962Z,211.70
2019-05-07T07:40:25.674Z,208.50
2019-05-07T07:42:54.145Z,206.47
2019-05-07T07:45:23.135Z,219.70
2019-05-07T07:47:53.082Z,216.57
2019-05-07T07:50:22.526Z,225.70
2019-05-07T07:52:53.008Z,216.60
2019-05-07T07:55:22.850Z,212.87
2019-05-07T07:57:53.053Z,208.43
2019-05-07T08:00:38.754Z,209.57
2019-05-07T08:03:08.967Z,210.97
2019-05-07T08:05:37.535Z,212.27
2019-05-07T08:08:06.254Z,207.83
2019-05-07T08:10:34.804Z,201.90
2019-05-07T08:13:03.422Z,207.13
2019-05-07T08:15:33.085Z,212.37
2019-05-07T08:18:02.790Z,207.13
2019-05-07T08:20:32.663Z,185.40
2019-05-07T08:23:02.893Z,197.23
2019-05-07T08:25:52.251Z,212.63
2019-05-07T08:28:22.859Z,198.87
2019-05-07T08:30:52.594Z,217.07
2019-05-07T08:33:22.957Z,205.13
2019-05-07T08:36:08.963Z,209.83
2019-05-07T08:38:48.318Z,199.80
2019-05-07T08:41:17.110Z,217.33
2019-05-07T08:43:45.810Z,205.57
2019-05-07T08:46:32.891Z,213.90
2019-05-07T08:49:01.964Z,206.00
2019-05-07T08:51:32.594Z,332.90
2019-05-07T08:54:05.604Z,249.13
2019-05-07T08:56:35.832Z,231.10
2019-05-07T08:59:12.245Z,18.43
2019-05-07T09:01:43.264Z,15.63
2019-05-07T09:04:13.608Z,15.43
2019-05-07T09:06:43.062Z,13.13
2019-05-07T09:09:15.427Z,16.97
2019-05-07T09:11:44.085Z,16.37
2019-05-07T09:14:12.879Z,17.50
2019-05-07T09:16:42.636Z,12.73
2019-05-07T09:19:12.935Z,17.57
2019-05-07T09:21:42.832Z,14.23
2019-05-07T09:24:12.215Z,11.13
2019-05-07T09:26:48.725Z,9.77
2019-05-07T09:29:32.355Z,17.93
2019-05-07T09:32:15.437Z,16.67
2019-05-07T09:34:52.036Z,90.40
2019-05-07T09:37:26.539Z,19.70
2019-05-07T09:39:55.098Z,21.77
2019-05-07T09:42:23.654Z,27.03
2019-05-07T09:44:52.920Z,24.63
2019-05-07T09:47:22.035Z,8.47
2019-05-07T09:50:02.088Z,10.60
2019-05-07T09:52:22.698Z,24.47
2019-05-07T09:54:52.251Z,30.10
2019-05-07T09:57:29.988Z,8.37
2019-05-07T09:59:53.075Z,11.97
2019-05-07T10:02:22.739Z,15.67
2019-05-07T10:04:52.643Z,24.87
2019-05-07T10:07:22.271Z,13.77
2019-05-07T10:09:52.421Z,15.70
2019-05-07T10:12:34.700Z,14.37
2019-05-07T10:15:03.359Z,14.20
2019-05-07T10:17:33.503Z,11.73
2019-05-07T10:20:04.443Z,9.10
2019-05-07T10:22:32.502Z,43.93
2019-05-07T10:25:02.814Z,12.80
2019-05-07T10:27:32.426Z,12.27
2019-05-07T10:30:02.319Z,9.87
2019-05-07T10:32:32.191Z,15.33
2019-05-07T10:35:02.220Z,27.23
2019-05-07T10:37:32.050Z,26.47
2019-05-07T10:40:02.859Z,6.90
2019-05-07T10:42:32.396Z,13.07
2019-05-07T10:45:03.154Z,16.47
2019-05-07T10:47:48.646Z,6.80
2019-05-07T10:50:35.434Z,14.33
2019-05-07T10:52:55.026Z,16.17
2019-05-07T10:55:23.584Z,32.67
2019-05-07T10:57:52.901Z,25.33
2019-05-07T11:00:24.922Z,10.93
2019-05-07T11:02:53.500Z,12.10
2019-05-07T11:05:22.105Z,19.17
2019-05-07T11:07:50.983Z,13.30
2019-05-07T11:10:19.506Z,13.43
2019-05-07T11:12:48.081Z,45.87
2019-05-07T11:15:16.645Z,15.30
2019-05-07T11:17:55.988Z,15.57
2019-05-07T11:20:24.537Z,15.50
2019-05-07T11:22:53.109Z,17.57
2019-05-07T11:25:22.549Z,35.33
2019-05-07T11:27:52.414Z,17.50
2019-05-07T11:30:22.783Z,22.20
2019-05-07T11:32:52.225Z,17.03
2019-05-07T11:35:23.056Z,14.17
2019-05-07T11:37:52.324Z,14.67
2019-05-07T11:40:22.687Z,9.10
2019-05-07T11:43:02.463Z,20.90
2019-05-07T11:45:44.843Z,19.00
2019-05-07T11:48:13.450Z,14.60
2019-05-07T11:50:43.643Z,12.13
2019-05-07T11:53:21.975Z,10.77
2019-05-07T11:55:52.233Z,11.50
2019-05-07T11:58:21.972Z,17.70
2019-05-07T12:01:03.669Z,22.33
2019-05-07T12:03:32.532Z,10.73
2019-05-07T12:06:02.083Z,13.70
2019-05-07T12:08:43.064Z,10.87
2019-05-07T12:11:02.335Z,13.30
2019-05-07T12:13:32.313Z,9.57
2019-05-07T12:16:02.982Z,4.97
2019-05-07T12:18:32.095Z,6.20
2019-05-07T12:21:03.738Z,11.80
2019-05-07T12:23:33.032Z,65.77
2019-05-07T12:26:02.263Z,3.23
2019-05-07T12:28:32.813Z,4.73
2019-05-07T12:31:17.941Z,7.80
2019-05-07T12:34:04.328Z,10.87
2019-05-07T12:36:33.123Z,5.40
2019-05-07T12:39:02.598Z,4.90
2019-05-07T12:41:33.930Z,12.63
2019-05-07T12:44:04.788Z,8.80
2019-05-07T12:46:33.598Z,9.87
2019-05-07T12:49:03.069Z,13.70
2019-05-07T12:51:37.482Z,17.77
2019-05-07T12:54:05.364Z,10.50
2019-05-07T12:56:34.029Z,6.23
2019-05-07T12:59:02.895Z,10.63
2019-05-07T13:01:42.245Z,9.03
2019-05-07T13:04:18.239Z,9.03
2019-05-07T13:06:48.432Z,5.33
2019-05-07T13:09:16.985Z,4.47
2019-05-07T13:11:45.548Z,10.93
2019-05-07T13:14:14.236Z,9.20
2019-05-07T13:16:42.868Z,10.00
2019-05-07T13:19:13.212Z,4.57
2019-05-07T13:21:49.187Z,8.67
2019-05-07T13:24:14.750Z,9.73
2019-05-07T13:26:42.750Z,5.07
2019-05-07T13:29:12.806Z,4.57
2019-05-07T13:31:41.856Z,7.60
2019-05-07T13:34:12.120Z,12.80
2019-05-07T13:36:42.161Z,7.10
2019-05-07T13:39:32.551Z,6.03
2019-05-07T13:42:18.819Z,12.70
2019-05-07T13:44:48.923Z,5.43
2019-05-07T13:47:28.106Z,14.23
2019-05-07T13:49:56.719Z,6.70
2019-05-07T13:52:25.266Z,6.20
2019-05-07T13:54:54.086Z,7.27
2019-05-07T13:57:22.841Z,12.90
2019-05-07T13:59:53.033Z,13.67
2019-05-07T14:02:26.089Z,7.70
2019-05-07T14:04:54.607Z,8.20
2019-05-07T14:07:23.956Z,7.00
2019-05-07T14:09:52.809Z,6.70
2019-05-07T14:12:22.985Z,17.20
2019-05-07T14:14:53.016Z,4.30
2019-05-07T14:17:22.138Z,9.53
2019-05-07T14:19:52.842Z,7.43
2019-05-07T14:22:22.612Z,10.37
2019-05-07T14:24:53.089Z,8.63
2019-05-07T14:27:21.544Z,10.07
2019-05-07T14:29:52.026Z,9.73
2019-05-07T14:32:24.829Z,7.67
2019-05-07T14:35:04.099Z,5.10
2019-05-07T14:37:46.285Z,12.63
2019-05-07T14:40:19.527Z,11.13
2019-05-07T14:43:03.579Z,9.93
2019-05-07T14:45:32.677Z,13.40
2019-05-07T14:48:02.927Z,9.67
2019-05-07T14:50:33.039Z,12.27
2019-05-07T14:53:02.723Z,8.63
2019-05-07T14:55:32.428Z,10.07
2019-05-07T14:58:01.885Z,14.33
2019-05-07T15:00:30.542Z,11.03
2019-05-07T15:02:59.029Z,11.13
2019-05-07T15:05:27.507Z,7.67
2019-05-07T15:08:07.360Z,12.00
2019-05-07T15:10:26.267Z,12.30
2019-05-07T15:12:54.748Z,15.53
2019-05-07T15:15:23.280Z,12.40
2019-05-07T15:17:53.413Z,12.53
2019-05-07T15:20:22.554Z,10.33
2019-05-07T15:23:02.717Z,20.80
2019-05-07T15:25:32.006Z,5.37
2019-05-07T15:28:01.808Z,8.40
2019-05-07T15:30:32.436Z,10.10
2019-05-07T15:33:02.280Z,11.57
2019-05-07T15:35:31.999Z,7.23
2019-05-07T15:38:02.431Z,8.57
2019-05-07T15:40:33.002Z,6.47
2019-05-07T15:43:02.305Z,8.77
2019-05-07T15:45:30.949Z,6.00
2019-05-07T15:47:59.642Z,12.07
2019-05-07T15:50:32.231Z,6.80
2019-05-07T15:53:05.481Z,12.30
2019-05-07T15:55:34.108Z,13.60
2019-05-07T15:58:02.852Z,10.37
2019-05-07T16:00:33.559Z,10.80
2019-05-07T16:03:13.148Z,10.13
2019-05-07T16:05:42.470Z,6.30
2019-05-07T16:08:13.076Z,7.70
2019-05-07T16:10:42.646Z,8.97
2019-05-07T16:13:13.708Z,6.40
2019-05-07T16:15:42.523Z,8.40
2019-05-07T16:18:23.795Z,5.60
2019-05-07T16:20:52.299Z,5.13
2019-05-07T16:23:22.055Z,13.57
2019-05-07T16:25:52.669Z,9.50
2019-05-07T16:28:21.902Z,17.13
2019-05-07T16:30:52.180Z,7.73
2019-05-07T16:33:20.799Z,9.13
2019-05-07T16:35:49.350Z,6.10
2019-05-07T16:38:18.194Z,8.70
2019-05-07T16:40:47.949Z,6.70
2019-05-07T16:43:16.506Z,4.57
2019-05-07T16:45:45.090Z,7.73
2019-05-07T16:48:13.784Z,9.20
2019-05-07T16:50:45.382Z,7.70
2019-05-07T16:53:26.468Z,8.70
2019-05-07T16:55:44.103Z,9.07
2019-05-07T16:58:14.316Z,7.10
2019-05-07T17:00:47.676Z,8.37
2019-05-07T17:03:17.812Z,8.10
2019-05-07T17:05:46.394Z,17.13
2019-05-07T17:08:16.586Z,7.67
2019-05-07T17:10:45.627Z,6.60
2019-05-07T17:13:14.141Z,10.93
2019-05-07T17:15:56.494Z,17.73
2019-05-07T17:18:26.061Z,8.10
2019-05-07T17:20:55.348Z,7.43
2019-05-07T17:23:23.956Z,10.73
2019-05-07T17:25:52.711Z,9.47
2019-05-07T17:28:22.916Z,12.83
2019-05-07T17:30:52.438Z,8.00
2019-05-07T17:33:23.054Z,6.17
2019-05-07T17:35:51.897Z,11.37
2019-05-07T17:38:22.854Z,12.43
2019-05-07T17:40:52.131Z,6.33
2019-05-07T17:43:21.990Z,18.07
2019-05-07T17:45:52.247Z,10.23
2019-05-07T17:48:23.055Z,11.03
2019-05-07T17:51:08.203Z,10.13
2019-05-07T17:53:37.255Z,13.07
2019-05-07T17:56:05.898Z,14.60
2019-05-07T17:58:34.624Z,6.47
2019-05-07T18:01:04.491Z,8.13
2019-05-07T18:03:34.438Z,14.43
2019-05-07T18:06:03.063Z,13.37
2019-05-07T18:08:32.543Z,7.97
2019-05-07T18:11:02.330Z,13.63
2019-05-07T18:13:32.280Z,8.03
2019-05-07T18:16:03.118Z,10.30
2019-05-07T18:18:32.708Z,15.93
2019-05-07T18:21:02.277Z,10.37
2019-05-07T18:23:32.068Z,9.63
2019-05-07T18:26:01.071Z,31.63
2019-05-07T18:28:29.729Z,18.30
2019-05-07T18:30:58.732Z,21.20
2019-05-07T18:33:34.837Z,21.10
2019-05-07T18:36:03.538Z,18.00
2019-05-07T18:38:32.957Z,24.70
2019-05-07T18:41:02.936Z,17.80
2019-05-07T18:43:33.162Z,23.60
2019-05-07T18:46:02.399Z,20.03
2019-05-07T18:48:31.019Z,18.17
2019-05-07T18:50:59.666Z,19.20
2019-05-07T18:53:28.381Z,18.70
2019-05-07T18:55:57.493Z,20.63
2019-05-07T18:58:26.141Z,13.87
2019-05-07T19:00:56.395Z,19.00
2019-05-07T19:03:25.430Z,21.03
2019-05-07T19:05:54.653Z,16.20
2019-05-07T19:08:23.332Z,13.63
2019-05-07T19:10:52.259Z,22.83
2019-05-07T19:13:22.220Z,18.63
2019-05-07T19:15:52.711Z,21.93
2019-05-07T19:18:22.768Z,22.87
2019-05-07T19:20:52.952Z,20.93
2019-05-07T19:23:22.512Z,22.47
2019-05-07T19:25:52.452Z,20.13
2019-05-07T19:28:22.453Z,23.57
2019-05-07T19:30:54.142Z,19.13
2019-05-07T19:33:27.011Z,28.20
2019-05-07T19:35:54.974Z,16.40
2019-05-07T19:38:24.295Z,18.30
2019-05-07T19:40:53.285Z,23.00
2019-05-07T19:43:23.437Z,21.03
2019-05-07T19:45:52.519Z,26.70
2019-05-07T19:48:23.159Z,24.73
2019-05-07T19:50:52.800Z,25.33
2019-05-07T19:53:23.489Z,26.40
2019-05-07T19:56:08.956Z,27.37
2019-05-07T19:58:38.194Z,24.10
2019-05-07T20:01:08.652Z,21.40
2019-05-07T20:03:37.810Z,30.13
2019-05-07T20:06:06.842Z,35.10
2019-05-07T20:08:36.745Z,29.17
2019-05-07T20:11:16.289Z,33.97
2019-05-07T20:13:46.133Z,36.30
2019-05-07T20:16:16.493Z,31.67
2019-05-07T20:18:48.123Z,29.43
2019-05-07T20:21:22.911Z,33.33
2019-05-07T20:23:52.695Z,28.87
2019-05-07T20:26:23.430Z,30.07
2019-05-07T20:28:52.834Z,26.77
2019-05-07T20:31:22.774Z,37.93
2019-05-07T20:33:53.111Z,38.30
2019-05-07T20:36:22.227Z,32.03
2019-05-07T20:38:52.140Z,37.17
2019-05-07T20:41:23.087Z,33.13
2019-05-07T20:43:52.637Z,30.73
2019-05-07T20:46:23.370Z,33.07
2019-05-07T20:48:53.512Z,27.33
2019-05-07T20:51:23.107Z,33.53
2019-05-07T20:53:56.736Z,38.47
2019-05-07T20:56:27.140Z,29.93
2019-05-07T20:58:55.733Z,31.77
2019-05-07T21:01:24.633Z,39.13
2019-05-07T21:03:53.419Z,43.63
2019-05-07T21:06:22.569Z,33.07
2019-05-07T21:08:51.365Z,27.00
2019-05-07T21:11:19.979Z,29.17
2019-05-07T21:13:48.804Z,28.07
2019-05-07T21:16:17.510Z,26.47
2019-05-07T21:18:45.994Z,29.90
2019-05-07T21:21:14.632Z,36.60
2019-05-07T21:23:43.575Z,33.63
2019-05-07T21:26:13.053Z,33.50
2019-05-07T21:28:43.176Z,29.77
2019-05-07T21:31:12.089Z,22.77
2019-05-07T21:33:42.739Z,29.17
2019-05-07T21:36:12.179Z,36.50
2019-05-07T21:38:42.551Z,28.27
2019-05-07T21:41:12.872Z,26.77
2019-05-07T21:43:43.084Z,33.60
2019-05-07T21:46:13.410Z,34.47
2019-05-07T21:48:41.915Z,33.90
2019-05-07T21:51:12.190Z,34.77
2019-05-07T21:53:48.314Z,30.63
2019-05-07T21:56:27.336Z,36.53
2019-05-07T21:58:57.515Z,31.00
2019-05-07T22:01:33.638Z,36.30
2019-05-07T22:04:02.272Z,29.87
2019-05-07T22:06:30.833Z,47.17
2019-05-07T22:08:59.227Z,37.50
2019-05-07T22:11:27.769Z,40.87
2019-05-07T22:13:56.198Z,36.63
2019-05-07T22:16:24.676Z,38.80
2019-05-07T22:18:53.224Z,35.13
2019-05-07T22:21:21.718Z,36.00
2019-05-07T22:23:52.233Z,36.97
2019-05-07T22:26:25.556Z,33.47
2019-05-07T22:28:53.789Z,35.73
2019-05-07T22:31:31.345Z,31.93
2019-05-07T22:34:02.121Z,32.90
2019-05-07T22:36:32.710Z,36.47
2019-05-07T22:39:01.948Z,31.10
2019-05-07T22:41:31.839Z,34.67
2019-05-07T22:44:02.417Z,36.87
2019-05-07T22:46:32.670Z,34.33
2019-05-07T22:49:03.116Z,41.63
2019-05-07T22:51:31.722Z,44.07
2019-05-07T22:54:04.107Z,37.47
2019-05-07T22:56:48.550Z,38.60
2019-05-07T22:59:17.013Z,31.13
2019-05-07T23:01:45.565Z,41.57
2019-05-07T23:04:14.053Z,37.30
2019-05-07T23:06:43.694Z,37.20
2019-05-07T23:09:12.820Z,48.77
2019-05-07T23:11:41.347Z,40.43
2019-05-07T23:14:11.799Z,43.03
2019-05-07T23:16:40.018Z,34.97
2019-05-07T23:19:08.430Z,37.13
2019-05-07T23:21:36.975Z,38.07
2019-05-07T23:24:05.465Z,39.90
2019-05-07T23:26:47.204Z,38.87
2019-05-07T23:29:04.224Z,43.90
2019-05-07T23:31:32.711Z,38.30
2019-05-07T23:34:01.888Z,35.57
2019-05-07T23:36:30.634Z,41.13
2019-05-07T23:38:59.045Z,35.60
2019-05-07T23:41:32.999Z,44.23
2019-05-07T23:44:12.462Z,37.97
2019-05-07T23:46:42.598Z,38.73
2019-05-07T23:49:12.604Z,39.33
2019-05-07T23:51:42.162Z,40.50
2019-05-07T23:54:12.128Z,34.87
2019-05-07T23:56:42.733Z,41.17
2019-05-07T23:59:14.502Z,36.80
